Meishomaru — JD3044 — position and weather

sailwx.info

Track history (hours):
 
Tides and Currents Weather Stations Pressure Air Temp Water Temp Dewpoint Dewpoint Depression Visibility Wind Speed Wind Dir Waves Ship Positions

Meishomaru

Last reported at 2015-Mar-28 23:30 UTC. Time now 2015-Mar-29 03:12 UTC.
Position N 35°53' E 140°41'.

Length 68 m; draft 4 m.

Type: Tanker. MMSI: 431001216.

Date/timePositionNaut miles runAvg speedWind from/ knotsBaromVisibWave heightAir tempDewpointWater temp
2015-Mar-28 23:30N 35°53' E 140°41'4 4.3
2015-Mar-28 22:33N 35°57' E 140°42'0 0.0
2015-Mar-28 20:33N 35°57' E 140°42'0 0.1
2015-Mar-28 16:10N 35°58' E 140°42'6010.6
2015-Mar-28 10:31N 35°02' E 140°14'1613.6
2015-Mar-28 09:21N 34°53' E 139°58'1110.3
2015-Mar-28 08:15N 34°56' E 139°45'710.0
2015-Mar-28 07:33N 35°03' E 139°44'1111.2
2015-Mar-28 06:33N 35°14' E 139°46'1111.3
2015-Mar-28 05:33N 35°25' E 139°44'6 2.1
2015-Mar-28 02:30N 35°31' E 139°46'0 0.0
2015-Mar-28 01:30N 35°31' E 139°46'0 0.0
2015-Mar-28 00:30N 35°31' E 139°46'3 3.2
2015-Mar-27 23:32N 35°29' E 139°49'0 0.0
2015-Mar-27 22:29N 35°29' E 139°49'0 0.0
2015-Mar-27 21:29N 35°29' E 139°49'0 0.0
2015-Mar-27 20:23N 35°29' E 139°49'0 0.0
2015-Mar-27 19:32N 35°29' E 139°49'0 0.0
2015-Mar-27 18:32N 35°29' E 139°49'0 0.0
2015-Mar-27 17:32N 35°29' E 139°49'0 0.0
2015-Mar-27 16:32N 35°29' E 139°49'0 0.0
2015-Mar-27 15:32N 35°29' E 139°49'0 0.0
2015-Mar-27 14:29N 35°29' E 139°49'0 0.0
2015-Mar-27 13:32N 35°29' E 139°49'0 0.0
2015-Mar-27 12:26N 35°29' E 139°49'0 0.0
2015-Mar-27 11:26N 35°29' E 139°49'0 0.0
2015-Mar-27 10:32N 35°29' E 139°49'0 0.0
2015-Mar-27 09:29N 35°29' E 139°49'0 0.0
2015-Mar-27 08:32N 35°29' E 139°49'0 0.1
2015-Mar-27 07:33N 35°29' E 139°49'1111.2
2015-Mar-27 06:33N 35°19' E 139°44'1211.5
2015-Mar-27 05:33N 35°07' E 139°45'  
2015-Mar-21 10:32N 34°07' E 134°47'1313.0
2015-Mar-21 09:33N 33°58' E 134°57'24010.8
2015-Mar-20 11:25N 35°06' E 139°36'1112.5
2015-Mar-20 10:33N 35°13' E 139°46'1212.2
2015-Mar-20 09:33N 35°25' E 139°43'12 1.8
2015-Mar-20 03:09N 35°30' E 139°57'1 1.4
2015-Mar-20 02:33N 35°29' E 139°56'0 0.0
2015-Mar-20 01:33N 35°29' E 139°56'0 0.0
2015-Mar-20 00:27N 35°29' E 139°56'0 0.0
2015-Mar-19 23:33N 35°29' E 139°56'0 0.0
2015-Mar-19 22:06N 35°29' E 139°56'0 0.0
2015-Mar-19 21:03N 35°29' E 139°56'0 0.0
2015-Mar-19 20:27N 35°29' E 139°56'0 0.0
2015-Mar-19 19:33N 35°29' E 139°56'0 0.0
2015-Mar-19 18:33N 35°29' E 139°56'0 0.0
2015-Mar-19 17:33N 35°29' E 139°56'0 0.0
2015-Mar-19 16:28N 35°29' E 139°56'1010.8
2015-Mar-19 15:33N 35°24' E 139°46'1211.7
2015-Mar-19 14:33N 35°12' E 139°47'1212.4
2015-Mar-19 13:33N 34°60' E 139°44'  
Track history (hours):
 
Tides and Currents Weather Stations Pressure Air Temp Water Temp Dewpoint Dewpoint Depression Visibility Wind Speed Wind Dir Waves Ship Positions

Meishomaru

Last reported at 2015-Mar-28 23:30 UTC. Time now 2015-Mar-29 03:12 UTC.
Position N 35°53' E 140°41'.

Length 68 m; draft 4 m.

Type: Tanker. MMSI: 431001216.

Date/timePositionNaut miles runAvg speedWind from/ knotsBaromVisibWave heightAir tempDewpointWater temp
2015-Mar-28 23:30N 35°53' E 140°41'4 4.3
2015-Mar-28 22:33N 35°57' E 140°42'0 0.0
2015-Mar-28 20:33N 35°57' E 140°42'0 0.1
2015-Mar-28 16:10N 35°58' E 140°42'6010.6
2015-Mar-28 10:31N 35°02' E 140°14'1613.6
2015-Mar-28 09:21N 34°53' E 139°58'1110.3
2015-Mar-28 08:15N 34°56' E 139°45'710.0
2015-Mar-28 07:33N 35°03' E 139°44'1111.2
2015-Mar-28 06:33N 35°14' E 139°46'1111.3
2015-Mar-28 05:33N 35°25' E 139°44'6 2.1
2015-Mar-28 02:30N 35°31' E 139°46'0 0.0
2015-Mar-28 01:30N 35°31' E 139°46'0 0.0
2015-Mar-28 00:30N 35°31' E 139°46'3 3.2
2015-Mar-27 23:32N 35°29' E 139°49'0 0.0
2015-Mar-27 22:29N 35°29' E 139°49'0 0.0
2015-Mar-27 21:29N 35°29' E 139°49'0 0.0
2015-Mar-27 20:23N 35°29' E 139°49'0 0.0
2015-Mar-27 19:32N 35°29' E 139°49'0 0.0
2015-Mar-27 18:32N 35°29' E 139°49'0 0.0
2015-Mar-27 17:32N 35°29' E 139°49'0 0.0
2015-Mar-27 16:32N 35°29' E 139°49'0 0.0
2015-Mar-27 15:32N 35°29' E 139°49'0 0.0
2015-Mar-27 14:29N 35°29' E 139°49'0 0.0
2015-Mar-27 13:32N 35°29' E 139°49'0 0.0
2015-Mar-27 12:26N 35°29' E 139°49'0 0.0
2015-Mar-27 11:26N 35°29' E 139°49'0 0.0
2015-Mar-27 10:32N 35°29' E 139°49'0 0.0
2015-Mar-27 09:29N 35°29' E 139°49'0 0.0
2015-Mar-27 08:32N 35°29' E 139°49'0 0.1
2015-Mar-27 07:33N 35°29' E 139°49'1111.2
2015-Mar-27 06:33N 35°19' E 139°44'1211.5
2015-Mar-27 05:33N 35°07' E 139°45'  
2015-Mar-21 10:32N 34°07' E 134°47'1313.0
2015-Mar-21 09:33N 33°58' E 134°57'24010.8
2015-Mar-20 11:25N 35°06' E 139°36'1112.5
2015-Mar-20 10:33N 35°13' E 139°46'1212.2
2015-Mar-20 09:33N 35°25' E 139°43'12 1.8
2015-Mar-20 03:09N 35°30' E 139°57'1 1.4
2015-Mar-20 02:33N 35°29' E 139°56'0 0.0
2015-Mar-20 01:33N 35°29' E 139°56'0 0.0
2015-Mar-20 00:27N 35°29' E 139°56'0 0.0
2015-Mar-19 23:33N 35°29' E 139°56'0 0.0
2015-Mar-19 22:06N 35°29' E 139°56'0 0.0
2015-Mar-19 21:03N 35°29' E 139°56'0 0.0
2015-Mar-19 20:27N 35°29' E 139°56'0 0.0
2015-Mar-19 19:33N 35°29' E 139°56'0 0.0
2015-Mar-19 18:33N 35°29' E 139°56'0 0.0
2015-Mar-19 17:33N 35°29' E 139°56'0 0.0
2015-Mar-19 16:28N 35°29' E 139°56'1010.8
2015-Mar-19 15:33N 35°24' E 139°46'1211.7
2015-Mar-19 14:33N 35°12' E 139°47'1212.4
2015-Mar-19 13:33N 34°60' E 139°44'  

Dump ship's entire track history